sensor_id;sensor_type;location;lat;lon;timestamp;pressure;altitude;pressure_sealevel;temperature;humidity
64115;BME280;62188;35.640;139.748;2023-10-19T00:00:39;101813.11;;;27.03;28.57
64115;BME280;62188;35.640;139.748;2023-10-19T00:03:05;101814.35;;;26.95;29.01
64115;BME280;62188;35.640;139.748;2023-10-19T00:05:30;101806.24;;;27.27;28.80
64115;BME280;62188;35.640;139.748;2023-10-19T00:07:56;101806.50;;;26.89;29.52
64115;BME280;62188;35.640;139.748;2023-10-19T00:10:20;101803.18;;;27.03;29.05
64115;BME280;62188;35.640;139.748;2023-10-19T00:12:45;101798.59;;;27.09;29.19
64115;BME280;62188;35.640;139.748;2023-10-19T00:15:12;101794.67;;;27.29;29.69
64115;BME280;62188;35.640;139.748;2023-10-19T00:17:36;101786.87;;;27.29;29.78
64115;BME280;62188;35.640;139.748;2023-10-19T00:20:01;101782.90;;;27.22;29.38
64115;BME280;62188;35.640;139.748;2023-10-19T00:22:27;101776.64;;;27.79;29.43
64115;BME280;62188;35.640;139.748;2023-10-19T00:24:52;101773.00;;;27.45;28.78
64115;BME280;62188;35.640;139.748;2023-10-19T00:27:17;101765.38;;;27.72;28.75
64115;BME280;62188;35.640;139.748;2023-10-19T00:29:42;101766.55;;;27.44;28.47
64115;BME280;62188;35.640;139.748;2023-10-19T00:32:08;101759.90;;;27.52;28.01
64115;BME280;62188;35.640;139.748;2023-10-19T00:34:32;101756.02;;;27.60;27.47
64115;BME280;62188;35.640;139.748;2023-10-19T00:36:58;101751.47;;;27.79;26.92
64115;BME280;62188;35.640;139.748;2023-10-19T00:39:24;101747.89;;;27.95;26.08
64115;BME280;62188;35.640;139.748;2023-10-19T00:41:49;101744.24;;;28.28;26.03
64115;BME280;62188;35.640;139.748;2023-10-19T00:44:14;101742.74;;;28.60;25.52
64115;BME280;62188;35.640;139.748;2023-10-19T00:46:40;101736.40;;;28.74;24.91
64115;BME280;62188;35.640;139.748;2023-10-19T00:49:05;101733.43;;;28.56;24.76
64115;BME280;62188;35.640;139.748;2023-10-19T00:51:33;101735.28;;;28.67;25.57
64115;BME280;62188;35.640;139.748;2023-10-19T00:53:57;101734.11;;;28.83;25.47
64115;BME280;62188;35.640;139.748;2023-10-19T00:56:20;101732.40;;;28.73;25.37
64115;BME280;62188;35.640;139.748;2023-10-19T00:58:46;101728.82;;;28.39;24.93
64115;BME280;62188;35.640;139.748;2023-10-19T01:01:10;101723.63;;;28.32;25.97
64115;BME280;62188;35.640;139.748;2023-10-19T01:03:36;101723.06;;;28.50;25.77
64115;BME280;62188;35.640;139.748;2023-10-19T01:06:02;101720.23;;;28.32;25.27
64115;BME280;62188;35.640;139.748;2023-10-19T01:08:27;101716.25;;;28.14;25.02
64115;BME280;62188;35.640;139.748;2023-10-19T01:10:53;101715.13;;;28.31;25.59
64115;BME280;62188;35.640;139.748;2023-10-19T01:13:19;101714.41;;;28.39;25.36
64115;BME280;62188;35.640;139.748;2023-10-19T01:15:43;101710.07;;;28.67;25.42
64115;BME280;62188;35.640;139.748;2023-10-19T01:18:08;101708.36;;;28.50;25.26
64115;BME280;62188;35.640;139.748;2023-10-19T01:20:33;101703.23;;;29.11;25.21
64115;BME280;62188;35.640;139.748;2023-10-19T01:23:00;101696.85;;;29.13;25.22
64115;BME280;62188;35.640;139.748;2023-10-19T01:25:24;101693.70;;;29.23;25.15
64115;BME280;62188;35.640;139.748;2023-10-19T01:27:49;101697.11;;;29.35;24.61
64115;BME280;62188;35.640;139.748;2023-10-19T01:30:15;101697.19;;;28.25;25.28
64115;BME280;62188;35.640;139.748;2023-10-19T01:32:40;101695.24;;;28.71;25.57
64115;BME280;62188;35.640;139.748;2023-10-19T01:35:06;101687.62;;;28.43;25.94
64115;BME280;62188;35.640;139.748;2023-10-19T01:37:31;101683.30;;;28.93;25.72
64115;BME280;62188;35.640;139.748;2023-10-19T01:39:56;101678.24;;;29.32;25.85
64115;BME280;62188;35.640;139.748;2023-10-19T01:42:22;101669.06;;;29.33;25.73
64115;BME280;62188;35.640;139.748;2023-10-19T01:44:47;101664.95;;;29.51;25.86
64115;BME280;62188;35.640;139.748;2023-10-19T01:47:12;101661.16;;;29.47;25.85
64115;BME280;62188;35.640;139.748;2023-10-19T01:49:37;101658.42;;;30.17;25.46
64115;BME280;62188;35.640;139.748;2023-10-19T01:52:03;101653.99;;;29.88;25.19
64115;BME280;62188;35.640;139.748;2023-10-19T01:54:28;101649.56;;;30.14;25.11
64115;BME280;62188;35.640;139.748;2023-10-19T01:56:55;101644.85;;;30.35;25.06
64115;BME280;62188;35.640;139.748;2023-10-19T01:59:18;101639.15;;;30.36;24.99
64115;BME280;62188;35.640;139.748;2023-10-19T02:01:44;101633.53;;;30.45;25.08
64115;BME280;62188;35.640;139.748;2023-10-19T02:04:09;101628.29;;;29.90;25.14
64115;BME280;62188;35.640;139.748;2023-10-19T02:06:35;101624.03;;;29.47;25.82
64115;BME280;62188;35.640;139.748;2023-10-19T02:09:02;101620.60;;;29.71;25.98
64115;BME280;62188;35.640;139.748;2023-10-19T02:11:26;101613.78;;;29.96;25.75
64115;BME280;62188;35.640;139.748;2023-10-19T02:13:53;101614.38;;;29.89;25.60
64115;BME280;62188;35.640;139.748;2023-10-19T02:16:16;101606.92;;;29.98;25.17
64115;BME280;62188;35.640;139.748;2023-10-19T02:18:43;101604.22;;;30.03;25.27
64115;BME280;62188;35.640;139.748;2023-10-19T02:21:07;101599.87;;;30.46;25.38
64115;BME280;62188;35.640;139.748;2023-10-19T02:23:32;101593.68;;;30.67;25.35
64115;BME280;62188;35.640;139.748;2023-10-19T02:25:57;101589.27;;;30.99;25.01
64115;BME280;62188;35.640;139.748;2023-10-19T02:28:23;101580.35;;;30.95;25.05
64115;BME280;62188;35.640;139.748;2023-10-19T02:30:48;101576.02;;;30.42;25.39
64115;BME280;62188;35.640;139.748;2023-10-19T02:33:13;101569.41;;;30.62;25.56
64115;BME280;62188;35.640;139.748;2023-10-19T02:35:38;101561.49;;;30.84;25.33
64115;BME280;62188;35.640;139.748;2023-10-19T02:38:04;101556.36;;;30.86;24.97
64115;BME280;62188;35.640;139.748;2023-10-19T02:40:29;101557.58;;;31.10;24.27
64115;BME280;62188;35.640;139.748;2023-10-19T02:42:55;101555.17;;;28.91;25.65
64115;BME280;62188;35.640;139.748;2023-10-19T02:45:20;101549.25;;;29.10;25.67
64115;BME280;62188;35.640;139.748;2023-10-19T02:47:46;101541.96;;;28.69;26.07
64115;BME280;62188;35.640;139.748;2023-10-19T02:50:11;101543.10;;;29.33;26.31
64115;BME280;62188;35.640;139.748;2023-10-19T02:52:36;101532.66;;;29.60;25.59
64115;BME280;62188;35.640;139.748;2023-10-19T02:55:01;101528.24;;;29.81;25.67
64115;BME280;62188;35.640;139.748;2023-10-19T02:57:26;101521.28;;;29.62;25.58
64115;BME280;62188;35.640;139.748;2023-10-19T02:59:52;101521.27;;;29.62;24.79
64115;BME280;62188;35.640;139.748;2023-10-19T03:02:17;101514.17;;;29.49;24.85
64115;BME280;62188;35.640;139.748;2023-10-19T03:04:42;101510.19;;;28.71;24.54
64115;BME280;62188;35.640;139.748;2023-10-19T03:07:09;101507.10;;;28.94;24.43
64115;BME280;62188;35.640;139.748;2023-10-19T03:09:33;101502.10;;;27.44;25.73
64115;BME280;62188;35.640;139.748;2023-10-19T03:11:58;101504.70;;;28.00;25.47
64115;BME280;62188;35.640;139.748;2023-10-19T03:14:23;101499.06;;;28.24;25.30
64115;BME280;62188;35.640;139.748;2023-10-19T03:16:49;101492.14;;;28.94;25.00
64115;BME280;62188;35.640;139.748;2023-10-19T03:19:14;101488.70;;;28.59;24.85
64115;BME280;62188;35.640;139.748;2023-10-19T03:21:40;101477.80;;;28.52;24.54
64115;BME280;62188;35.640;139.748;2023-10-19T03:24:05;101472.17;;;28.95;24.94
64115;BME280;62188;35.640;139.748;2023-10-19T03:26:31;101472.31;;;29.80;24.06
64115;BME280;62188;35.640;139.748;2023-10-19T03:28:56;101466.31;;;28.97;24.17
64115;BME280;62188;35.640;139.748;2023-10-19T03:31:22;101461.16;;;28.81;24.05
64115;BME280;62188;35.640;139.748;2023-10-19T03:33:47;101466.19;;;28.75;24.00
64115;BME280;62188;35.640;139.748;2023-10-19T03:36:12;101468.76;;;28.35;24.04
64115;BME280;62188;35.640;139.748;2023-10-19T03:38:37;101463.79;;;29.08;23.75
64115;BME280;62188;35.640;139.748;2023-10-19T03:41:03;101461.72;;;28.95;24.20
64115;BME280;62188;35.640;139.748;2023-10-19T03:43:28;101459.37;;;29.50;24.34
64115;BME280;62188;35.640;139.748;2023-10-19T03:45:53;101456.59;;;29.57;23.70
64115;BME280;62188;35.640;139.748;2023-10-19T03:48:19;101452.30;;;28.94;23.80
64115;BME280;62188;35.640;139.748;2023-10-19T03:50:43;101447.51;;;28.98;24.09
64115;BME280;62188;35.640;139.748;2023-10-19T03:53:08;101444.78;;;29.42;24.33
64115;BME280;62188;35.640;139.748;2023-10-19T03:55:35;101442.14;;;29.65;24.39
64115;BME280;62188;35.640;139.748;2023-10-19T03:58:00;101443.30;;;29.91;23.92
64115;BME280;62188;35.640;139.748;2023-10-19T04:00:25;101441.32;;;30.08;23.69
64115;BME280;62188;35.640;139.748;2023-10-19T04:02:50;101438.79;;;30.09;23.40
64115;BME280;62188;35.640;139.748;2023-10-19T04:05:15;101445.60;;;29.45;23.52
64115;BME280;62188;35.640;139.748;2023-10-19T04:07:40;101441.02;;;28.22;24.61
64115;BME280;62188;35.640;139.748;2023-10-19T04:10:07;101439.80;;;27.45;25.43
64115;BME280;62188;35.640;139.748;2023-10-19T04:12:31;101443.82;;;27.23;25.83
64115;BME280;62188;35.640;139.748;2023-10-19T04:14:56;101434.75;;;27.42;25.71
64115;BME280;62188;35.640;139.748;2023-10-19T04:17:21;101435.78;;;27.98;25.39
64115;BME280;62188;35.640;139.748;2023-10-19T04:19:47;101436.34;;;28.32;25.58
64115;BME280;62188;35.640;139.748;2023-10-19T04:22:11;101431.77;;;28.75;25.24
64115;BME280;62188;35.640;139.748;2023-10-19T04:24:37;101435.98;;;28.40;25.26
64115;BME280;62188;35.640;139.748;2023-10-19T04:27:03;101434.06;;;28.09;25.52
64115;BME280;62188;35.640;139.748;2023-10-19T04:29:28;101434.37;;;28.31;25.37
64115;BME280;62188;35.640;139.748;2023-10-19T04:31:53;101422.68;;;27.90;25.69
64115;BME280;62188;35.640;139.748;2023-10-19T04:34:20;101423.97;;;28.07;25.57
64115;BME280;62188;35.640;139.748;2023-10-19T04:36:43;101425.53;;;27.22;26.02
64115;BME280;62188;35.640;139.748;2023-10-19T04:39:09;101422.89;;;27.03;26.57
64115;BME280;62188;35.640;139.748;2023-10-19T04:41:34;101420.57;;;27.07;26.48
64115;BME280;62188;35.640;139.748;2023-10-19T04:43:59;101419.11;;;26.85;26.96
64115;BME280;62188;35.640;139.748;2023-10-19T04:46:25;101423.73;;;27.35;26.93
64115;BME280;62188;35.640;139.748;2023-10-19T04:48:50;101420.84;;;27.12;26.41
64115;BME280;62188;35.640;139.748;2023-10-19T04:51:15;101415.37;;;27.41;26.90
64115;BME280;62188;35.640;139.748;2023-10-19T04:53:41;101414.56;;;27.53;26.10
64115;BME280;62188;35.640;139.748;2023-10-19T04:56:07;101420.10;;;26.74;26.50
64115;BME280;62188;35.640;139.748;2023-10-19T04:58:32;101416.01;;;27.01;26.55
64115;BME280;62188;35.640;139.748;2023-10-19T05:00:57;101417.20;;;27.01;26.91
64115;BME280;62188;35.640;139.748;2023-10-19T05:03:23;101415.25;;;27.16;26.58
64115;BME280;62188;35.640;139.748;2023-10-19T05:05:48;101411.86;;;27.32;27.35
64115;BME280;62188;35.640;139.748;2023-10-19T05:08:13;101412.09;;;27.48;26.78
64115;BME280;62188;35.640;139.748;2023-10-19T05:10:39;101421.82;;;26.71;26.99
64115;BME280;62188;35.640;139.748;2023-10-19T05:13:04;101414.60;;;26.47;27.61
64115;BME280;62188;35.640;139.748;2023-10-19T05:15:29;101409.82;;;26.99;28.46
64115;BME280;62188;35.640;139.748;2023-10-19T05:17:55;101413.62;;;27.15;28.89
64115;BME280;62188;35.640;139.748;2023-10-19T05:20:20;101408.23;;;26.97;27.86
64115;BME280;62188;35.640;139.748;2023-10-19T05:22:45;101411.69;;;26.81;27.36
64115;BME280;62188;35.640;139.748;2023-10-19T05:25:11;101408.53;;;26.32;27.80
64115;BME280;62188;35.640;139.748;2023-10-19T05:27:35;101404.85;;;25.73;28.38
64115;BME280;62188;35.640;139.748;2023-10-19T05:30:01;101404.61;;;25.11;29.16
64115;BME280;62188;35.640;139.748;2023-10-19T05:32:26;101400.28;;;25.29;29.13
64115;BME280;62188;35.640;139.748;2023-10-19T05:34:52;101400.15;;;25.24;29.42
64115;BME280;62188;35.640;139.748;2023-10-19T05:37:17;101399.74;;;24.86;30.26
64115;BME280;62188;35.640;139.748;2023-10-19T05:39:42;101399.13;;;24.63;30.43
64115;BME280;62188;35.640;139.748;2023-10-19T05:42:08;101393.35;;;25.14;29.93
64115;BME280;62188;35.640;139.748;2023-10-19T05:44:33;101396.09;;;25.30;29.84
64115;BME280;62188;35.640;139.748;2023-10-19T05:46:59;101400.48;;;25.48;29.55
64115;BME280;62188;35.640;139.748;2023-10-19T05:49:24;101397.07;;;25.18;29.78
64115;BME280;62188;35.640;139.748;2023-10-19T05:51:49;101398.49;;;25.11;30.13
64115;BME280;62188;35.640;139.748;2023-10-19T05:54:15;101393.72;;;24.93;30.15
64115;BME280;62188;35.640;139.748;2023-10-19T05:56:39;101395.41;;;25.13;29.79
64115;BME280;62188;35.640;139.748;2023-10-19T05:59:06;101389.69;;;24.48;30.04
64115;BME280;62188;35.640;139.748;2023-10-19T06:01:31;101387.90;;;24.92;30.04
64115;BME280;62188;35.640;139.748;2023-10-19T06:03:57;101388.16;;;25.36;29.92
64115;BME280;62188;35.640;139.748;2023-10-19T06:06:22;101391.69;;;25.31;29.98
64115;BME280;62188;35.640;139.748;2023-10-19T06:08:47;101388.84;;;24.62;30.44
64115;BME280;62188;35.640;139.748;2023-10-19T06:11:13;101386.32;;;24.74;30.37
64115;BME280;62188;35.640;139.748;2023-10-19T06:13:38;101382.34;;;24.77;30.82
64115;BME280;62188;35.640;139.748;2023-10-19T06:16:04;101380.46;;;24.71;30.55
64115;BME280;62188;35.640;139.748;2023-10-19T06:18:29;101382.62;;;24.80;30.44
64115;BME280;62188;35.640;139.748;2023-10-19T06:20:54;101380.57;;;25.03;30.32
64115;BME280;62188;35.640;139.748;2023-10-19T06:23:20;101382.77;;;24.87;30.57
64115;BME280;62188;35.640;139.748;2023-10-19T06:25:45;101379.16;;;24.96;30.18
64115;BME280;62188;35.640;139.748;2023-10-19T06:28:10;101377.71;;;24.98;30.11
64115;BME280;62188;35.640;139.748;2023-10-19T06:30:36;101379.23;;;25.56;29.60
64115;BME280;62188;35.640;139.748;2023-10-19T06:33:02;101375.71;;;25.40;29.38
64115;BME280;62188;35.640;139.748;2023-10-19T06:35:26;101378.85;;;25.57;29.25
64115;BME280;62188;35.640;139.748;2023-10-19T06:37:53;101374.41;;;25.63;29.58
64115;BME280;62188;35.640;139.748;2023-10-19T06:40:18;101373.04;;;25.68;29.44
64115;BME280;62188;35.640;139.748;2023-10-19T06:42:43;101374.93;;;25.82;29.46
64115;BME280;62188;35.640;139.748;2023-10-19T06:45:09;101377.04;;;25.76;29.50
64115;BME280;62188;35.640;139.748;2023-10-19T06:47:33;101374.45;;;25.78;29.75
64115;BME280;62188;35.640;139.748;2023-10-19T06:49:58;101373.82;;;25.82;29.80
64115;BME280;62188;35.640;139.748;2023-10-19T06:52:23;101378.21;;;25.86;29.82
64115;BME280;62188;35.640;139.748;2023-10-19T06:54:49;101380.45;;;25.98;29.99
64115;BME280;62188;35.640;139.748;2023-10-19T06:57:14;101381.81;;;26.02;29.77
64115;BME280;62188;35.640;139.748;2023-10-19T06:59:39;101378.24;;;25.80;29.84
64115;BME280;62188;35.640;139.748;2023-10-19T07:02:05;101377.65;;;25.69;29.87
64115;BME280;62188;35.640;139.748;2023-10-19T07:04:31;101375.41;;;25.77;29.83
64115;BME280;62188;35.640;139.748;2023-10-19T07:06:57;101376.95;;;26.02;30.02
64115;BME280;62188;35.640;139.748;2023-10-19T07:09:21;101377.24;;;25.83;30.18
64115;BME280;62188;35.640;139.748;2023-10-19T07:11:46;101379.12;;;25.74;30.19
64115;BME280;62188;35.640;139.748;2023-10-19T07:14:12;101382.00;;;25.52;30.21
64115;BME280;62188;35.640;139.748;2023-10-19T07:16:37;101384.80;;;25.49;30.44
64115;BME280;62188;35.640;139.748;2023-10-19T07:19:02;101390.01;;;25.42;30.39
64115;BME280;62188;35.640;139.748;2023-10-19T07:21:28;101394.71;;;25.52;30.66
64115;BME280;62188;35.640;139.748;2023-10-19T07:23:53;101397.08;;;25.19;30.95
64115;BME280;62188;35.640;139.748;2023-10-19T07:26:18;101393.54;;;25.52;30.83
64115;BME280;62188;35.640;139.748;2023-10-19T07:28:43;101391.55;;;25.57;30.93
64115;BME280;62188;35.640;139.748;2023-10-19T07:31:09;101395.04;;;25.44;31.20
64115;BME280;62188;35.640;139.748;2023-10-19T07:33:34;101394.05;;;25.44;31.20
64115;BME280;62188;35.640;139.748;2023-10-19T07:35:59;101395.91;;;25.26;31.41
64115;BME280;62188;35.640;139.748;2023-10-19T07:38:26;101393.75;;;25.04;31.37
64115;BME280;62188;35.640;139.748;2023-10-19T07:40:50;101397.19;;;25.16;31.66
64115;BME280;62188;35.640;139.748;2023-10-19T07:43:15;101395.92;;;25.11;31.78
64115;BME280;62188;35.640;139.748;2023-10-19T07:45:40;101397.40;;;25.10;31.82
64115;BME280;62188;35.640;139.748;2023-10-19T07:48:07;101396.98;;;25.13;31.90
64115;BME280;62188;35.640;139.748;2023-10-19T07:50:31;101397.80;;;25.04;31.91
64115;BME280;62188;35.640;139.748;2023-10-19T07:52:56;101395.62;;;25.53;32.01
64115;BME280;62188;35.640;139.748;2023-10-19T07:55:23;101393.27;;;25.08;32.03
64115;BME280;62188;35.640;139.748;2023-10-19T07:57:50;101395.35;;;25.08;32.47
64115;BME280;62188;35.640;139.748;2023-10-19T08:00:14;101395.84;;;24.61;32.92
64115;BME280;62188;35.640;139.748;2023-10-19T08:02:38;101396.74;;;24.62;33.26
64115;BME280;62188;35.640;139.748;2023-10-19T08:05:04;101402.17;;;24.34;34.05
64115;BME280;62188;35.640;139.748;2023-10-19T08:07:29;101401.80;;;24.48;33.89
64115;BME280;62188;35.640;139.748;2023-10-19T08:09:54;101396.03;;;24.10;34.27
64115;BME280;62188;35.640;139.748;2023-10-19T08:12:19;101394.60;;;24.25;34.14
64115;BME280;62188;35.640;139.748;2023-10-19T08:14:44;101396.84;;;24.36;34.10
64115;BME280;62188;35.640;139.748;2023-10-19T08:17:09;101402.50;;;24.26;34.10
64115;BME280;62188;35.640;139.748;2023-10-19T08:19:35;101400.22;;;24.27;34.15
64115;BME280;62188;35.640;139.748;2023-10-19T08:22:00;101398.71;;;24.39;34.07
64115;BME280;62188;35.640;139.748;2023-10-19T08:24:26;101403.85;;;24.48;34.09
64115;BME280;62188;35.640;139.748;2023-10-19T08:26:51;101407.63;;;24.54;34.11
64115;BME280;62188;35.640;139.748;2023-10-19T08:29:16;101415.77;;;24.51;34.24
64115;BME280;62188;35.640;139.748;2023-10-19T08:31:43;101418.74;;;24.23;34.38
64115;BME280;62188;35.640;139.748;2023-10-19T08:34:07;101415.02;;;23.91;34.83
64115;BME280;62188;35.640;139.748;2023-10-19T08:36:33;101413.19;;;24.01;34.53
64115;BME280;62188;35.640;139.748;2023-10-19T08:38:58;101417.77;;;23.93;34.92
64115;BME280;62188;35.640;139.748;2023-10-19T08:41:23;101419.12;;;24.17;35.04
64115;BME280;62188;35.640;139.748;2023-10-19T08:43:48;101419.51;;;24.24;35.01
64115;BME280;62188;35.640;139.748;2023-10-19T08:46:13;101423.34;;;23.98;35.33
64115;BME280;62188;35.640;139.748;2023-10-19T08:48:39;101425.53;;;23.91;35.52
64115;BME280;62188;35.640;139.748;2023-10-19T08:51:08;101430.31;;;24.20;35.69
64115;BME280;62188;35.640;139.748;2023-10-19T08:53:31;101435.40;;;24.23;35.57
64115;BME280;62188;35.640;139.748;2023-10-19T08:55:55;101433.84;;;24.11;35.94
64115;BME280;62188;35.640;139.748;2023-10-19T08:58:21;101434.79;;;24.37;35.94
64115;BME280;62188;35.640;139.748;2023-10-19T09:00:47;101436.62;;;23.90;36.33
64115;BME280;62188;35.640;139.748;2023-10-19T09:03:11;101438.58;;;24.47;36.24
64115;BME280;62188;35.640;139.748;2023-10-19T09:05:40;101440.84;;;24.16;36.20
64115;BME280;62188;35.640;139.748;2023-10-19T09:08:01;101438.70;;;24.18;36.28
64115;BME280;62188;35.640;139.748;2023-10-19T09:10:29;101435.46;;;24.22;36.25
64115;BME280;62188;35.640;139.748;2023-10-19T09:13:00;101433.87;;;24.56;36.24
64115;BME280;62188;35.640;139.748;2023-10-19T09:15:22;101434.27;;;24.19;36.52
64115;BME280;62188;35.640;139.748;2023-10-19T09:17:44;101435.38;;;24.16;36.72
64115;BME280;62188;35.640;139.748;2023-10-19T09:20:10;101436.03;;;24.08;36.94
64115;BME280;62188;35.640;139.748;2023-10-19T09:22:36;101433.43;;;23.94;37.24
64115;BME280;62188;35.640;139.748;2023-10-19T09:25:00;101436.01;;;24.18;37.34
64115;BME280;62188;35.640;139.748;2023-10-19T09:27:24;101431.38;;;23.89;37.95
64115;BME280;62188;35.640;139.748;2023-10-19T09:29:51;101435.05;;;24.23;37.59
64115;BME280;62188;35.640;139.748;2023-10-19T09:32:16;101437.36;;;23.99;38.09
64115;BME280;62188;35.640;139.748;2023-10-19T09:34:41;101440.83;;;24.16;37.70
64115;BME280;62188;35.640;139.748;2023-10-19T09:37:06;101435.57;;;24.39;37.65
64115;BME280;62188;35.640;139.748;2023-10-19T09:39:32;101436.39;;;24.29;37.53
64115;BME280;62188;35.640;139.748;2023-10-19T09:41:58;101436.24;;;24.33;37.53
64115;BME280;62188;35.640;139.748;2023-10-19T09:44:25;101435.49;;;24.29;37.70
64115;BME280;62188;35.640;139.748;2023-10-19T09:46:50;101437.55;;;24.22;37.92
64115;BME280;62188;35.640;139.748;2023-10-19T09:49:13;101437.36;;;24.30;37.85
64115;BME280;62188;35.640;139.748;2023-10-19T09:51:39;101439.16;;;24.36;37.81
64115;BME280;62188;35.640;139.748;2023-10-19T09:54:11;101433.08;;;23.95;38.50
64115;BME280;62188;35.640;139.748;2023-10-19T09:56:35;101435.52;;;24.26;38.35
64115;BME280;62188;35.640;139.748;2023-10-19T09:58:57;101433.48;;;24.37;38.36
64115;BME280;62188;35.640;139.748;2023-10-19T10:01:20;101431.07;;;24.39;38.28
64115;BME280;62188;35.640;139.748;2023-10-19T10:03:47;101429.10;;;24.30;38.47
64115;BME280;62188;35.640;139.748;2023-10-19T10:06:11;101426.42;;;24.34;38.45
64115;BME280;62188;35.640;139.748;2023-10-19T10:08:38;101434.76;;;24.34;38.53
64115;BME280;62188;35.640;139.748;2023-10-19T10:11:14;101433.87;;;23.90;39.11
64115;BME280;62188;35.640;139.748;2023-10-19T10:13:37;101434.23;;;23.93;39.22
64115;BME280;62188;35.640;139.748;2023-10-19T10:15:54;101432.71;;;23.84;39.61
64115;BME280;62188;35.640;139.748;2023-10-19T10:18:18;101437.08;;;23.98;39.56
64115;BME280;62188;35.640;139.748;2023-10-19T10:20:43;101429.98;;;24.03;39.57
64115;BME280;62188;35.640;139.748;2023-10-19T10:23:19;101429.41;;;23.82;40.09
64115;BME280;62188;35.640;139.748;2023-10-19T10:25:35;101431.69;;;23.96;40.82
64115;BME280;62188;35.640;139.748;2023-10-19T10:27:59;101433.56;;;24.08;40.48
64115;BME280;62188;35.640;139.748;2023-10-19T10:30:24;101431.86;;;23.73;40.19
64115;BME280;62188;35.640;139.748;2023-10-19T10:32:51;101431.24;;;23.81;39.71
64115;BME280;62188;35.640;139.748;2023-10-19T10:40:06;101423.93;;;23.87;39.03
64115;BME280;62188;35.640;139.748;2023-10-19T10:42:31;101430.45;;;23.69;39.72
64115;BME280;62188;35.640;139.748;2023-10-19T10:44:56;101432.21;;;23.72;40.15
64115;BME280;62188;35.640;139.748;2023-10-19T10:47:23;101430.67;;;24.10;40.36
64115;BME280;62188;35.640;139.748;2023-10-19T10:49:52;101429.13;;;23.99;40.28
64115;BME280;62188;35.640;139.748;2023-10-19T10:52:12;101430.07;;;24.27;39.63
64115;BME280;62188;35.640;139.748;2023-10-19T10:54:38;101426.23;;;24.27;39.93
64115;BME280;62188;35.640;139.748;2023-10-19T10:57:03;101420.06;;;23.88;39.50
64115;BME280;62188;35.640;139.748;2023-10-19T10:59:28;101418.55;;;23.89;39.52
64115;BME280;62188;35.640;139.748;2023-10-19T11:01:53;101416.69;;;23.94;40.06
64115;BME280;62188;35.640;139.748;2023-10-19T11:04:19;101419.02;;;24.04;40.66
64115;BME280;62188;35.640;139.748;2023-10-19T11:06:49;101415.91;;;23.93;40.66
64115;BME280;62188;35.640;139.748;2023-10-19T11:09:11;101419.77;;;24.14;41.77
64115;BME280;62188;35.640;139.748;2023-10-19T11:11:39;101409.96;;;24.03;40.20
64115;BME280;62188;35.640;139.748;2023-10-19T11:14:09;101405.21;;;23.61;40.97
64115;BME280;62188;35.640;139.748;2023-10-19T11:16:26;101407.58;;;23.93;40.69
64115;BME280;62188;35.640;139.748;2023-10-19T11:18:51;101416.42;;;24.13;40.19
64115;BME280;62188;35.640;139.748;2023-10-19T11:21:17;101415.69;;;23.97;40.11
64115;BME280;62188;35.640;139.748;2023-10-19T11:23:43;101415.05;;;23.85;40.07
64115;BME280;62188;35.640;139.748;2023-10-19T11:26:07;101415.39;;;23.83;40.09
64115;BME280;62188;35.640;139.748;2023-10-19T11:28:33;101415.15;;;23.90;40.06
64115;BME280;62188;35.640;139.748;2023-10-19T11:31:12;101409.31;;;23.98;39.89
64115;BME280;62188;35.640;139.748;2023-10-19T11:33:23;101413.47;;;24.02;39.68
64115;BME280;62188;35.640;139.748;2023-10-19T11:35:49;101417.76;;;24.10;39.66
64115;BME280;62188;35.640;139.748;2023-10-19T11:38:14;101417.09;;;24.38;39.96
64115;BME280;62188;35.640;139.748;2023-10-19T11:40:39;101419.70;;;24.14;39.58
64115;BME280;62188;35.640;139.748;2023-10-19T11:43:05;101420.95;;;24.15;40.60
64115;BME280;62188;35.640;139.748;2023-10-19T11:45:32;101416.75;;;24.15;41.01
64115;BME280;62188;35.640;139.748;2023-10-19T11:47:55;101412.76;;;24.06;40.96
64115;BME280;62188;35.640;139.748;2023-10-19T11:50:20;101418.39;;;23.89;41.24
64115;BME280;62188;35.640;139.748;2023-10-19T11:52:46;101420.26;;;23.78;41.75
64115;BME280;62188;35.640;139.748;2023-10-19T11:55:11;101421.02;;;23.55;41.54
64115;BME280;62188;35.640;139.748;2023-10-19T11:57:36;101419.83;;;23.77;41.08
64115;BME280;62188;35.640;139.748;2023-10-19T12:00:01;101413.35;;;23.36;40.83
64115;BME280;62188;35.640;139.748;2023-10-19T12:02:26;101419.15;;;23.79;40.83
64115;BME280;62188;35.640;139.748;2023-10-19T12:04:52;101411.18;;;23.68;41.51
64115;BME280;62188;35.640;139.748;2023-10-19T12:07:17;101411.99;;;24.06;40.83
64115;BME280;62188;35.640;139.748;2023-10-19T12:09:43;101415.42;;;24.14;40.71
64115;BME280;62188;35.640;139.748;2023-10-19T12:12:08;101415.69;;;24.14;40.46
64115;BME280;62188;35.640;139.748;2023-10-19T12:14:34;101418.57;;;23.66;40.55
64115;BME280;62188;35.640;139.748;2023-10-19T12:16:59;101428.57;;;23.94;40.45
64115;BME280;62188;35.640;139.748;2023-10-19T12:19:24;101429.18;;;23.69;40.77
64115;BME280;62188;35.640;139.748;2023-10-19T12:21:50;101424.91;;;23.99;41.17
64115;BME280;62188;35.640;139.748;2023-10-19T12:24:15;101425.29;;;23.84;41.08